Time;durP1;ratioP1;P1;durP2;ratioP2;P2;SDS_P1;SDS_P2;PMS_P1;PMS_P2;Temp;Humidity;BMP_temperature;BMP_pressure;BME280_temperature;BME280_humidity;BME280_pressure;Samples;Min_cycle;Max_cycle;Signal;HPM_P1;HPM_P2
2023/01/08 00:00:50;;;;;;;3.30;2.80;;;11.40;57.30;;;;;;5093147;28;20388;-75
2023/01/08 00:03:15;;;;;;;3.70;2.50;;;11.30;58.50;;;;;;5093204;28;20469;-74
2023/01/08 00:05:41;;;;;;;3.45;2.38;;;11.30;58.60;;;;;;5092791;28;20437;-73
2023/01/08 00:08:08;;;;;;;3.50;2.60;;;11.20;58.80;;;;;;5092614;28;20398;-73
2023/01/08 00:10:35;;;;;;;2.92;2.63;;;11.20;60.10;;;;;;5092696;28;20409;-72
2023/01/08 00:13:00;;;;;;;2.95;2.65;;;11.10;60.90;;;;;;5075283;28;20469;-74
2023/01/08 00:15:27;;;;;;;5.18;3.65;;;11.00;61.60;;;;;;5074605;28;20417;-73
2023/01/08 00:17:52;;;;;;;3.70;2.80;;;11.00;62.30;;;;;;5094028;28;20401;-75
2023/01/08 00:20:18;;;;;;;3.60;2.30;;;10.90;63.20;;;;;;5099028;28;20390;-73
2023/01/08 00:22:46;;;;;;;2.80;2.20;;;10.90;62.90;;;;;;5094543;28;20766;-74
2023/01/08 00:25:12;;;;;;;3.75;3.03;;;10.90;63.40;;;;;;5104713;28;20701;-74
2023/01/08 00:27:37;;;;;;;2.50;2.30;;;10.90;64.90;;;;;;5099928;28;20402;-73
2023/01/08 00:30:03;;;;;;;3.85;2.38;;;10.90;64.90;;;;;;5093444;28;20374;-74
2023/01/08 00:32:29;;;;;;;3.30;2.70;;;11.00;63.40;;;;;;5096533;28;20393;-74
2023/01/08 00:34:55;;;;;;;3.85;2.40;;;11.00;63.70;;;;;;5092168;28;20374;-74
2023/01/08 00:37:20;;;;;;;3.05;2.55;;;11.00;63.80;;;;;;5092705;28;20392;-74
2023/01/08 00:39:46;;;;;;;1.80;1.70;;;11.00;62.90;;;;;;5092626;28;20404;-73
2023/01/08 00:42:11;;;;;;;3.53;2.30;;;11.10;62.30;;;;;;5091992;28;20889;-72
2023/01/08 00:44:37;;;;;;;6.70;3.10;;;11.10;62.20;;;;;;5093359;28;20428;-75
2023/01/08 00:47:03;;;;;;;2.90;2.60;;;11.20;62.70;;;;;;5094234;28;20900;-73
2023/01/08 00:49:29;;;;;;;2.67;2.40;;;11.20;61.70;;;;;;5095225;28;20408;-73
2023/01/08 00:51:54;;;;;;;3.00;2.47;;;11.20;61.10;;;;;;5093915;28;20377;-74
2023/01/08 00:54:20;;;;;;;2.53;2.30;;;11.30;61.50;;;;;;5092219;28;20377;-73
2023/01/08 00:56:46;;;;;;;2.85;2.40;;;11.20;61.30;;;;;;5091852;28;20785;-75
2023/01/08 00:59:11;;;;;;;2.90;2.70;;;11.10;63.00;;;;;;5092130;28;20386;-73
2023/01/08 01:01:37;;;;;;;3.30;2.63;;;11.20;62.80;;;;;;5091711;28;20435;-73
2023/01/08 01:04:02;;;;;;;3.00;2.10;;;11.30;62.80;;;;;;5092332;28;20767;-73
2023/01/08 01:06:28;;;;;;;3.08;2.65;;;11.20;61.70;;;;;;5092467;28;20469;-73
2023/01/08 01:08:55;;;;;;;3.53;2.50;;;11.20;61.90;;;;;;5091951;28;20413;-73
2023/01/08 01:11:26;;;;;;;4.28;2.65;;;11.30;61.70;;;;;;5092809;28;20390;-75
2023/01/08 01:13:53;;;;;;;5.25;2.60;;;11.30;61.80;;;;;;5092760;28;20416;-73
2023/01/08 01:16:19;;;;;;;4.18;2.85;;;11.20;61.50;;;;;;5101788;28;20543;-73
2023/01/08 01:18:45;;;;;;;4.07;3.08;;;11.30;61.40;;;;;;5103748;28;20398;-73
2023/01/08 01:21:21;;;;;;;2.72;2.15;;;11.30;60.70;;;;;;5091958;28;20756;-72
2023/01/08 01:23:46;;;;;;;2.90;2.70;;;11.30;61.20;;;;;;5091545;28;20393;-73
2023/01/08 01:26:17;;;;;;;4.70;3.20;;;11.30;62.10;;;;;;5092015;28;21005;-74
2023/01/08 01:28:46;;;;;;;4.07;2.85;;;11.20;62.00;;;;;;5095984;28;20401;-74
2023/01/08 01:31:12;;;;;;;4.03;3.30;;;11.30;61.60;;;;;;5094982;28;20378;-73
2023/01/08 01:33:38;;;;;;;3.50;2.90;;;11.30;61.80;;;;;;5095265;28;20389;-73
2023/01/08 01:36:05;;;;;;;4.55;2.95;;;11.20;63.10;;;;;;5095101;28;20438;-74
2023/01/08 01:38:30;;;;;;;4.45;2.80;;;11.20;62.50;;;;;;5095639;28;20440;-75
2023/01/08 01:40:56;;;;;;;3.10;2.67;;;11.20;63.40;;;;;;5094783;28;20394;-75
2023/01/08 01:43:32;;;;;;;3.73;2.73;;;11.20;63.20;;;;;;5097210;28;20871;-73
2023/01/08 01:45:58;;;;;;;3.70;2.90;;;11.20;64.10;;;;;;5094826;28;20378;-73
2023/01/08 01:48:23;;;;;;;4.63;2.97;;;11.20;63.90;;;;;;5095575;28;20915;-73
2023/01/08 01:50:53;;;;;;;4.30;3.10;;;11.20;64.30;;;;;;5095145;28;20871;-72
2023/01/08 01:53:23;;;;;;;4.80;4.03;;;11.20;64.80;;;;;;5095749;28;20885;-74
2023/01/08 01:55:50;;;;;;;4.43;3.45;;;11.30;66.00;;;;;;5095553;28;20421;-73
2023/01/08 01:58:21;;;;;;;3.30;3.00;;;11.30;66.10;;;;;;5096110;28;20418;-74
2023/01/08 02:00:48;;;;;;;5.80;3.70;;;11.20;66.60;;;;;;5095356;28;20378;-77
2023/01/08 02:03:15;;;;;;;6.28;3.60;;;11.30;67.50;;;;;;5095205;28;20762;-72
2023/01/08 02:05:57;;;;;;;4.50;3.07;;;11.20;68.00;;;;;;5077996;28;20389;-73
2023/01/08 02:08:43;;;;;;;5.32;3.30;;;11.20;69.50;;;;;;5095391;28;20406;-74
2023/01/08 02:11:20;;;;;;;6.60;3.70;;;11.10;71.00;;;;;;5095789;28;20474;-73
2023/01/08 02:14:05;;;;;;;4.90;3.60;;;11.10;72.40;;;;;;5100997;28;20374;-73
2023/01/08 02:16:38;;;;;;;3.83;3.00;;;11.20;71.20;;;;;;5098892;28;20380;-75
2023/01/08 02:19:16;;;;;;;8.67;4.33;;;11.10;71.20;;;;;;5103205;28;20401;-75
2023/01/08 02:21:49;;;;;;;4.75;3.00;;;11.10;71.60;;;;;;5099763;28;20427;-76
2023/01/08 02:24:46;;;;;;;7.40;4.05;;;11.10;71.20;;;;;;5098016;28;20794;-73
2023/01/08 02:27:14;;;;;;;4.77;3.50;;;11.00;72.90;;;;;;5068581;28;20804;-73
2023/01/08 02:29:40;;;;;;;8.95;4.03;;;11.00;73.40;;;;;;5094459;28;20378;-74
2023/01/08 02:32:05;;;;;;;4.20;3.80;;;11.00;73.80;;;;;;5094110;28;20971;-74
2023/01/08 02:34:31;;;;;;;6.03;4.05;;;10.90;75.20;;;;;;5094154;28;20393;-73
2023/01/08 02:36:57;;;;;;;5.25;3.95;;;10.90;75.90;;;;;;5094036;28;20382;-72
2023/01/08 02:39:51;;;;;;;4.07;3.40;;;10.90;76.30;;;;;;5093760;28;20406;-72
2023/01/08 02:43:03;;;;;;;5.70;4.05;;;10.90;76.80;;;;;;5076097;28;20388;-75
2023/01/08 02:45:46;;;;;;;7.20;4.05;;;10.90;77.00;;;;;;5094070;28;20465;-74
2023/01/08 02:48:32;;;;;;;5.90;3.60;;;11.00;74.80;;;;;;5093895;28;20798;-73
2023/01/08 02:51:03;;;;;;;6.50;3.78;;;11.00;74.00;;;;;;5093600;28;20416;-72
2023/01/08 02:53:32;;;;;;;6.60;4.13;;;10.90;74.70;;;;;;5094109;28;20882;-73
2023/01/08 02:56:04;;;;;;;5.80;3.90;;;11.00;74.00;;;;;;5093894;28;20425;-75
2023/01/08 02:58:32;;;;;;;5.43;4.00;;;10.90;75.30;;;;;;5076200;28;20461;-73
2023/01/08 03:01:04;;;;;;;4.93;3.90;;;11.00;75.10;;;;;;5093309;28;20796;-72
2023/01/08 03:03:31;;;;;;;6.93;3.83;;;10.90;75.00;;;;;;5093466;28;20839;-72
2023/01/08 03:06:04;;;;;;;5.20;4.07;;;10.90;75.50;;;;;;5095007;28;20439;-73
2023/01/08 03:08:34;;;;;;;5.85;4.93;;;10.90;76.10;;;;;;5097728;28;20405;-74
2023/01/08 03:11:04;;;;;;;7.40;4.88;;;10.90;77.20;;;;;;5100003;28;20380;-74
2023/01/08 03:13:50;;;;;;;5.85;4.00;;;11.00;76.70;;;;;;5098278;28;20439;-72
2023/01/08 03:16:36;;;;;;;3.80;3.40;;;11.00;75.70;;;;;;5084464;28;20413;-73
2023/01/08 03:19:11;;;;;;;4.93;4.10;;;11.00;74.80;;;;;;5108897;22;20428;-73
2023/01/08 03:21:40;;;;;;;6.18;4.00;;;11.00;76.40;;;;;;5092275;28;20417;-73
2023/01/08 03:24:07;;;;;;;6.33;3.77;;;11.00;76.50;;;;;;5094511;28;20375;-76
2023/01/08 03:26:35;;;;;;;6.00;3.85;;;10.90;76.70;;;;;;5074641;28;20375;-73
2023/01/08 03:29:02;;;;;;;5.13;4.00;;;10.90;77.80;;;;;;5092584;28;20497;-74
2023/01/08 03:31:29;;;;;;;7.18;4.47;;;10.90;77.90;;;;;;5092240;28;20374;-74
2023/01/08 03:33:56;;;;;;;7.20;4.32;;;10.90;78.50;;;;;;5092705;28;20382;-75
2023/01/08 03:36:26;;;;;;;6.45;4.40;;;10.90;78.00;;;;;;5092945;28;20637;-74
2023/01/08 03:38:58;;;;;;;6.95;4.30;;;10.90;78.80;;;;;;5098548;28;20370;-74
2023/01/08 03:41:28;;;;;;;7.13;4.40;;;10.90;79.70;;;;;;5109911;28;20710;-73
2023/01/08 03:43:54;;;;;;;8.35;4.30;;;10.90;79.60;;;;;;5106640;28;20499;-73
2023/01/08 03:46:28;;;;;;;5.38;4.13;;;10.90;78.50;;;;;;5109699;28;20397;-74
2023/01/08 03:48:55;;;;;;;7.00;4.35;;;10.90;79.40;;;;;;5109540;28;20423;-73
2023/01/08 03:51:20;;;;;;;7.30;4.40;;;10.90;80.10;;;;;;5097222;28;20739;-74
2023/01/08 03:53:48;;;;;;;5.68;4.43;;;10.90;79.50;;;;;;5093614;28;20392;-74
2023/01/08 03:56:14;;;;;;;6.25;4.30;;;10.90;81.80;;;;;;5093263;28;20459;-74
2023/01/08 03:58:40;;;;;;;9.25;4.43;;;10.80;81.60;;;;;;5093329;28;20374;-73
2023/01/08 04:01:06;;;;;;;7.22;5.00;;;10.80;83.50;;;;;;5092946;28;20469;-76
2023/01/08 04:03:31;;;;;;;6.82;4.55;;;10.70;84.30;;;;;;5093263;28;20812;-74
2023/01/08 04:06:00;;;;;;;6.00;4.23;;;10.70;85.30;;;;;;5093268;28;20747;-74
2023/01/08 04:08:25;;;;;;;5.25;4.20;;;10.70;85.50;;;;;;5091940;28;20402;-73
2023/01/08 04:10:51;;;;;;;5.30;4.50;;;10.70;85.00;;;;;;5091274;28;20736;-73
2023/01/08 04:13:16;;;;;;;5.23;4.63;;;10.70;85.30;;;;;;5091148;28;20389;-74
2023/01/08 04:15:51;;;;;;;4.83;4.10;;;10.70;86.00;;;;;;5091389;28;20473;-74
2023/01/08 04:18:17;;;;;;;4.85;3.50;;;10.80;86.50;;;;;;5091076;28;20389;-73
2023/01/08 04:20:48;;;;;;;5.82;3.58;;;10.80;85.70;;;;;;5090602;28;20413;-74
2023/01/08 04:23:15;;;;;;;6.95;3.55;;;10.80;83.90;;;;;;5072549;28;20943;-74
2023/01/08 04:25:40;;;;;;;4.38;3.97;;;10.70;85.00;;;;;;5090885;28;20386;-74
2023/01/08 04:28:06;;;;;;;5.70;4.18;;;10.70;86.70;;;;;;5090610;28;20409;-73
2023/01/08 04:30:31;;;;;;;4.40;3.97;;;10.90;85.60;;;;;;5090685;28;20378;-75
2023/01/08 04:32:57;;;;;;;5.57;4.03;;;10.90;86.40;;;;;;5090322;28;20378;-73
2023/01/08 04:35:23;;;;;;;5.10;3.40;;;10.80;87.20;;;;;;5072610;28;20421;-73
2023/01/08 04:37:48;;;;;;;5.73;3.07;;;10.70;87.70;;;;;;5090832;28;20408;-74
2023/01/08 04:40:14;;;;;;;3.90;2.88;;;10.70;88.50;;;;;;5090890;28;20398;-74
2023/01/08 04:42:39;;;;;;;4.28;3.22;;;10.80;87.70;;;;;;5090930;28;20451;-74
2023/01/08 04:45:06;;;;;;;5.70;3.50;;;10.70;88.70;;;;;;5091279;28;20723;-73
2023/01/08 04:47:32;;;;;;;7.30;4.20;;;10.70;89.00;;;;;;5077607;28;20469;-74
2023/01/08 04:49:57;;;;;;;4.30;3.30;;;10.60;91.00;;;;;;5097268;28;20771;-74
2023/01/08 04:52:23;;;;;;;4.60;3.10;;;10.60;91.70;;;;;;5091649;28;20416;-73
2023/01/08 04:54:48;;;;;;;5.00;3.80;;;10.60;91.10;;;;;;5091268;28;20378;-74
2023/01/08 04:57:14;;;;;;;4.00;3.20;;;10.60;90.80;;;;;;5090983;28;20382;-74
2023/01/08 04:59:39;;;;;;;4.70;2.90;;;10.60;91.00;;;;;;5090668;28;20386;-74
2023/01/08 05:02:05;;;;;;;5.30;3.40;;;10.60;91.40;;;;;;5093651;28;20468;-74
2023/01/08 05:04:30;;;;;;;3.90;3.10;;;10.50;90.80;;;;;;5094823;28;20738;-74
2023/01/08 05:06:56;;;;;;;5.38;3.13;;;10.50;91.60;;;;;;5094572;28;20719;-74
2023/01/08 05:09:21;;;;;;;3.13;2.70;;;10.60;90.20;;;;;;5094478;28;20401;-74
2023/01/08 05:11:47;;;;;;;3.33;2.90;;;10.60;90.40;;;;;;5094252;28;20378;-74
2023/01/08 05:14:13;;;;;;;4.70;2.87;;;10.60;89.10;;;;;;5094520;28;20862;-74
2023/01/08 05:16:38;;;;;;;4.63;2.37;;;10.70;87.30;;;;;;5094700;28;20378;-73
2023/01/08 05:19:04;;;;;;;4.60;2.50;;;10.60;86.40;;;;;;5094016;28;20447;-74
2023/01/08 05:21:30;;;;;;;4.43;3.17;;;10.70;86.00;;;;;;5094300;28;20837;-74
2023/01/08 05:23:55;;;;;;;3.10;2.70;;;10.80;85.90;;;;;;5094426;28;20469;-73
2023/01/08 05:26:21;;;;;;;3.13;2.70;;;10.70;85.10;;;;;;5094414;28;20442;-74
2023/01/08 05:28:46;;;;;;;3.40;2.70;;;10.70;83.10;;;;;;5094148;28;20397;-75
2023/01/08 05:31:13;;;;;;;2.50;2.10;;;10.70;83.20;;;;;;5093622;28;20378;-74
2023/01/08 05:33:38;;;;;;;2.77;2.33;;;10.60;84.00;;;;;;5094170;28;20393;-74
2023/01/08 05:36:08;;;;;;;4.47;2.07;;;10.40;85.00;;;;;;5094143;28;20375;-74
2023/01/08 05:38:34;;;;;;;3.30;2.10;;;10.40;84.90;;;;;;5093864;28;20465;-74
2023/01/08 05:41:00;;;;;;;1.60;1.50;;;10.50;84.30;;;;;;5093824;28;20469;-74
2023/01/08 05:43:26;;;;;;;1.80;1.70;;;10.40;82.40;;;;;;5076328;28;20388;-74
2023/01/08 05:45:51;;;;;;;4.13;2.60;;;10.40;82.90;;;;;;5093294;28;20394;-74
2023/01/08 05:48:17;;;;;;;1.70;1.60;;;10.50;80.00;;;;;;5093833;28;20402;-74
2023/01/08 05:50:42;;;;;;;1.55;1.40;;;10.40;80.80;;;;;;5093783;28;20401;-74
2023/01/08 05:53:08;;;;;;;2.70;1.60;;;10.40;80.80;;;;;;5085396;28;20486;-74
2023/01/08 05:55:35;;;;;;;3.80;1.90;;;10.60;77.00;;;;;;5066696;28;20390;-74
2023/01/08 05:58:04;;;;;;;2.28;1.73;;;10.50;76.30;;;;;;5091956;28;20414;-74
2023/01/08 06:00:30;;;;;;;4.13;2.80;;;10.40;76.80;;;;;;5090094;28;20438;-75
2023/01/08 06:02:56;;;;;;;4.60;2.90;;;10.30;77.10;;;;;;5092703;28;20788;-74
2023/01/08 06:05:21;;;;;;;6.22;4.20;;;10.20;78.40;;;;;;5092939;28;20386;-74
2023/01/08 06:07:47;;;;;;;6.28;3.92;;;10.20;79.20;;;;;;5092625;28;20409;-74
2023/01/08 06:10:13;;;;;;;7.40;5.15;;;10.30;77.90;;;;;;5090289;28;20426;-74
2023/01/08 06:12:38;;;;;;;2.60;2.05;;;10.40;77.70;;;;;;5070052;28;20864;-74
2023/01/08 06:15:04;;;;;;;5.37;4.10;;;10.50;75.10;;;;;;5071120;28;20391;-74
2023/01/08 06:17:30;;;;;;;4.00;3.00;;;10.50;75.40;;;;;;5081715;28;20393;-74
2023/01/08 06:19:56;;;;;;;3.23;2.90;;;10.60;73.10;;;;;;5073352;28;20397;-72
2023/01/08 06:22:22;;;;;;;5.83;4.20;;;10.60;72.00;;;;;;5090089;28;20405;-74
2023/01/08 06:24:47;;;;;;;7.60;5.43;;;10.60;72.10;;;;;;5091304;28;20385;-74
2023/01/08 06:27:13;;;;;;;6.33;4.30;;;10.60;72.60;;;;;;5091815;28;20393;-74
2023/01/08 06:29:39;;;;;;;4.40;3.63;;;10.60;72.20;;;;;;5091092;28;20397;-75
2023/01/08 06:32:04;;;;;;;5.00;3.60;;;10.70;71.90;;;;;;5090681;28;20426;-74
2023/01/08 06:34:30;;;;;;;4.27;2.90;;;10.70;70.20;;;;;;5091313;28;20431;-74
2023/01/08 06:36:55;;;;;;;1.67;1.10;;;10.70;69.50;;;;;;5091133;28;20905;-75
2023/01/08 06:39:21;;;;;;;3.00;1.23;;;10.70;68.50;;;;;;5091425;28;20954;-75
2023/01/08 06:41:47;;;;;;;3.03;1.40;;;10.70;71.90;;;;;;5091109;28;20428;-74
2023/01/08 06:44:12;;;;;;;3.17;1.40;;;10.80;70.70;;;;;;5090434;28;20894;-74
2023/01/08 06:46:39;;;;;;;3.72;1.27;;;10.40;66.20;;;;;;5091138;28;20393;-74
2023/01/08 06:49:08;;;;;;;4.60;1.50;;;10.10;74.60;;;;;;5080594;28;20434;-74
2023/01/08 06:51:34;;;;;;;3.58;1.10;;;9.90;76.10;;;;;;5090545;28;20891;-74
2023/01/08 06:54:00;;;;;;;3.28;1.10;;;9.70;78.30;;;;;;5090573;28;20464;-74
2023/01/08 06:56:26;;;;;;;3.08;1.00;;;9.50;78.90;;;;;;5090958;28;20390;-74
2023/01/08 06:58:52;;;;;;;2.85;1.08;;;9.50;79.30;;;;;;5090927;28;20868;-74
2023/01/08 07:01:17;;;;;;;9.48;1.60;;;9.40;76.60;;;;;;5090190;28;20426;-74
2023/01/08 07:03:43;;;;;;;4.17;1.67;;;9.30;78.60;;;;;;5072167;28;20388;-74
2023/01/08 07:06:15;;;;;;;6.03;2.38;;;9.30;80.70;;;;;;5090024;28;20463;-75
2023/01/08 07:08:41;;;;;;;4.03;1.80;;;9.20;83.10;;;;;;5090440;28;20440;-75
2023/01/08 07:11:06;;;;;;;5.50;1.73;;;9.10;85.50;;;;;;5088050;28;20443;-73
2023/01/08 07:13:32;;;;;;;3.65;2.13;;;9.10;88.20;;;;;;5072052;28;20387;-73
2023/01/08 07:15:58;;;;;;;7.33;2.10;;;9.10;89.40;;;;;;5089960;28;20413;-74
2023/01/08 07:18:23;;;;;;;4.22;2.05;;;9.10;89.90;;;;;;5090283;28;20378;-73
2023/01/08 07:20:51;;;;;;;5.05;2.30;;;9.10;88.80;;;;;;5090260;28;20951;-73
2023/01/08 07:23:16;;;;;;;4.22;1.50;;;9.00;88.80;;;;;;5094200;28;20429;-73
2023/01/08 07:25:42;;;;;;;4.43;2.30;;;9.10;89.00;;;;;;5090268;28;20425;-73
2023/01/08 07:28:11;;;;;;;4.30;1.80;;;9.00;89.40;;;;;;5089937;28;20517;-73
2023/01/08 07:30:37;;;;;;;5.50;1.70;;;9.10;88.90;;;;;;5088954;28;20403;-73
2023/01/08 07:33:02;;;;;;;8.77;3.20;;;9.10;87.90;;;;;;5089754;28;20397;-74
2023/01/08 07:35:28;;;;;;;7.50;3.00;;;9.20;87.60;;;;;;5071967;28;20389;-74
2023/01/08 07:37:54;;;;;;;3.40;2.20;;;9.10;88.90;;;;;;5089594;28;20864;-74
2023/01/08 07:40:20;;;;;;;7.75;3.22;;;9.00;90.20;;;;;;5090354;28;20859;-74
2023/01/08 07:42:46;;;;;;;9.20;3.00;;;9.00;91.30;;;;;;5089641;28;20465;-74
2023/01/08 07:45:11;;;;;;;6.90;2.90;;;9.10;87.60;;;;;;5089892;28;20390;-73
2023/01/08 07:47:37;;;;;;;5.57;2.03;;;9.00;88.30;;;;;;5081885;28;20522;-73
2023/01/08 07:50:03;;;;;;;6.07;2.47;;;9.00;88.70;;;;;;5075474;28;20756;-73
2023/01/08 07:52:28;;;;;;;3.42;1.60;;;8.90;91.00;;;;;;5089507;28;20815;-73
2023/01/08 07:54:54;;;;;;;5.30;2.60;;;9.00;91.20;;;;;;5090207;28;20378;-74
2023/01/08 07:57:19;;;;;;;6.63;2.60;;;8.90;91.60;;;;;;5089907;28;20386;-75
2023/01/08 07:59:45;;;;;;;9.05;3.78;;;8.90;92.70;;;;;;5089386;28;20809;-74
2023/01/08 08:02:11;;;;;;;7.78;3.47;;;8.80;93.80;;;;;;5088779;28;20393;-73
2023/01/08 08:04:36;;;;;;;6.70;2.00;;;8.90;94.20;;;;;;5071207;28;20439;-74
2023/01/08 08:07:02;;;;;;;4.00;1.70;;;8.90;90.80;;;;;;5089291;28;20472;-73
2023/01/08 08:09:28;;;;;;;6.60;3.00;;;8.90;88.70;;;;;;5088870;28;20413;-73
2023/01/08 08:11:53;;;;;;;5.07;3.20;;;9.00;87.80;;;;;;5086968;28;20826;-74
2023/01/08 08:14:19;;;;;;;11.17;4.03;;;8.90;86.60;;;;;;5089141;28;20431;-74
2023/01/08 08:16:46;;;;;;;7.03;3.13;;;8.90;87.80;;;;;;5089172;28;20855;-74
2023/01/08 08:19:11;;;;;;;8.32;4.82;;;8.70;88.20;;;;;;5070368;28;20485;-74
2023/01/08 08:21:37;;;;;;;10.02;3.42;;;8.60;89.80;;;;;;5088606;28;20979;-74
2023/01/08 08:24:03;;;;;;;9.05;4.15;;;8.50;92.00;;;;;;5088794;28;20394;-74
2023/01/08 08:26:29;;;;;;;9.32;2.75;;;8.40;93.40;;;;;;5088840;28;20416;-74
2023/01/08 08:28:55;;;;;;;8.90;3.65;;;8.30;96.00;;;;;;5088699;28;20426;-74
2023/01/08 08:31:20;;;;;;;9.68;3.63;;;8.30;95.60;;;;;;5088373;28;20458;-74
2023/01/08 08:33:46;;;;;;;7.33;3.77;;;8.30;96.50;;;;;;5071672;28;20421;-72
2023/01/08 08:36:12;;;;;;;11.65;4.40;;;8.20;98.70;;;;;;5087785;28;21155;-74
2023/01/08 08:38:38;;;;;;;10.38;3.67;;;8.10;99.90;;;;;;5070239;28;20903;-74
2023/01/08 08:41:04;;;;;;;10.20;3.38;;;8.10;99.90;;;;;;5088774;28;20386;-74
2023/01/08 08:43:30;;;;;;;5.57;3.13;;;8.10;99.90;;;;;;5088827;28;21044;-73
2023/01/08 08:45:56;;;;;;;13.20;3.80;;;8.00;99.90;;;;;;5080244;28;20406;-73
2023/01/08 08:48:22;;;;;;;11.57;5.77;;;8.10;99.90;;;;;;5064084;28;20499;-73
2023/01/08 08:50:48;;;;;;;9.88;4.45;;;8.10;99.90;;;;;;5089344;28;20378;-74
2023/01/08 08:53:14;;;;;;;15.57;7.70;;;8.00;99.90;;;;;;5088924;28;20389;-73
2023/01/08 08:55:39;;;;;;;7.93;2.83;;;8.00;99.90;;;;;;5088548;28;20387;-75
2023/01/08 08:58:09;;;;;;;10.05;3.95;;;8.00;99.90;;;;;;5072025;28;20390;-75
2023/01/08 09:00:36;;;;;;;8.57;2.60;;;8.00;99.90;;;;;;5089431;28;20397;-74
2023/01/08 09:03:02;;;;;;;8.65;3.33;;;8.00;99.90;;;;;;5088631;28;20398;-74
2023/01/08 09:05:27;;;;;;;17.30;6.45;;;8.00;99.90;;;;;;5089299;28;20812;-74
2023/01/08 09:07:53;;;;;;;9.30;4.30;;;8.10;99.90;;;;;;5089551;28;20394;-74
2023/01/08 09:10:20;;;;;;;8.57;2.90;;;8.20;99.90;;;;;;5088065;28;20409;-74
2023/01/08 09:12:46;;;;;;;8.70;3.00;;;8.50;99.00;;;;;;5071149;28;20397;-74
2023/01/08 09:15:11;;;;;;;5.50;3.13;;;8.60;93.30;;;;;;5089034;28;20393;-73
2023/01/08 09:17:37;;;;;;;10.77;3.00;;;8.70;92.50;;;;;;5088782;28;20417;-74
2023/01/08 09:20:04;;;;;;;7.30;3.47;;;8.70;91.40;;;;;;5100903;22;21088;-74
2023/01/08 09:22:30;;;;;;;9.00;2.92;;;8.80;89.80;;;;;;5098823;28;20869;-74
2023/01/08 09:24:55;;;;;;;12.52;3.63;;;8.90;87.50;;;;;;5097297;28;20385;-73
2023/01/08 09:27:21;;;;;;;11.68;3.70;;;9.00;83.90;;;;;;5097287;28;20398;-74
2023/01/08 09:29:47;;;;;;;12.35;3.65;;;9.00;85.40;;;;;;5101703;28;20416;-75
2023/01/08 09:32:12;;;;;;;10.60;2.40;;;9.10;82.70;;;;;;5092572;28;20418;-74
2023/01/08 09:34:38;;;;;;;12.55;3.50;;;9.70;77.70;;;;;;5084122;28;20960;-74
2023/01/08 09:37:05;;;;;;;14.38;3.45;;;9.90;73.20;;;;;;5074628;28;20880;-75
2023/01/08 09:39:31;;;;;;;7.10;2.58;;;10.00;69.10;;;;;;5105512;28;20390;-72
2023/01/08 09:41:59;;;;;;;15.25;4.70;;;9.90;70.50;;;;;;5111244;28;20378;-73
2023/01/08 09:44:29;;;;;;;8.90;3.83;;;9.90;70.30;;;;;;5095425;28;20389;-75
2023/01/08 09:46:56;;;;;;;16.90;6.00;;;9.90;71.20;;;;;;5092232;28;20453;-76
2023/01/08 09:49:29;;;;;;;11.30;3.40;;;10.00;69.40;;;;;;5113239;28;20435;-76
2023/01/08 09:51:55;;;;;;;10.80;3.53;;;10.00;70.80;;;;;;5117147;28;20366;-73
2023/01/08 09:54:24;;;;;;;10.70;3.00;;;10.10;70.00;;;;;;5099789;28;20424;-73
2023/01/08 09:56:51;;;;;;;12.23;3.20;;;10.20;67.90;;;;;;5116810;28;20402;-72
2023/01/08 09:59:17;;;;;;;7.32;3.47;;;10.40;63.40;;;;;;5101258;28;20385;-74
2023/01/08 10:01:44;;;;;;;15.45;4.60;;;10.60;62.10;;;;;;5090856;28;20420;-75
2023/01/08 10:04:14;;;;;;;10.23;3.00;;;10.80;59.30;;;;;;5096083;28;20750;-76
2023/01/08 10:06:45;;;;;;;7.00;2.40;;;10.90;58.40;;;;;;5078912;28;20389;-76
2023/01/08 10:09:14;;;;;;;9.37;2.70;;;10.90;55.80;;;;;;5090044;28;20973;-75
2023/01/08 10:11:43;;;;;;;12.10;3.80;;;10.90;56.50;;;;;;5078435;28;20824;-76
2023/01/08 10:14:30;;;;;;;6.72;2.60;;;10.90;57.30;;;;;;5077324;28;20376;-74
2023/01/08 10:17:38;;;;;;;12.35;4.38;;;10.90;58.30;;;;;;5078182;28;20376;-75
2023/01/08 10:20:25;;;;;;;5.13;1.77;;;10.90;56.60;;;;;;5062015;28;20479;-76
2023/01/08 10:22:53;;;;;;;8.73;2.75;;;10.90;55.00;;;;;;5083727;28;20384;-76
2023/01/08 10:25:27;;;;;;;9.23;2.90;;;10.80;54.50;;;;;;5073774;28;20399;-76
2023/01/08 10:27:59;;;;;;;14.30;7.05;;;10.80;55.10;;;;;;5084982;28;20975;-74
2023/01/08 10:30:27;;;;;;;6.82;2.58;;;10.80;56.00;;;;;;5094297;28;20499;-72
2023/01/08 10:32:55;;;;;;;7.93;3.38;;;10.70;56.60;;;;;;5093888;28;20430;-73
2023/01/08 10:35:27;;;;;;;5.22;2.92;;;10.70;57.00;;;;;;5101748;28;20398;-76
2023/01/08 10:37:53;;;;;;;8.45;1.92;;;10.60;58.30;;;;;;5104334;28;20492;-76
2023/01/08 10:40:35;;;;;;;9.35;3.33;;;10.70;56.60;;;;;;5099006;28;20688;-76
2023/01/08 10:43:08;;;;;;;9.95;4.13;;;10.80;56.70;;;;;;5099239;28;20393;-75
2023/01/08 10:45:34;;;;;;;6.57;2.60;;;10.90;55.90;;;;;;5081376;28;20415;-75
2023/01/08 10:48:05;;;;;;;7.93;2.33;;;11.00;53.30;;;;;;5079392;28;20455;-76
2023/01/08 10:50:33;;;;;;;12.02;5.90;;;11.00;53.30;;;;;;5098669;28;20401;-75
2023/01/08 10:53:23;;;;;;;9.05;3.17;;;11.10;53.00;;;;;;5097154;28;20390;-75
2023/01/08 10:55:57;;;;;;;9.02;3.10;;;11.10;52.70;;;;;;5079502;28;20505;-75
2023/01/08 10:58:23;;;;;;;4.83;1.80;;;11.20;53.10;;;;;;5096529;28;20519;-76
2023/01/08 11:00:49;;;;;;;8.87;3.47;;;11.30;50.10;;;;;;5096533;28;20382;-76
2023/01/08 11:03:35;;;;;;;11.53;6.43;;;11.40;49.90;;;;;;5098002;28;20442;-75
2023/01/08 11:06:13;;;;;;;7.35;3.33;;;11.40;51.10;;;;;;5097477;28;20728;-74
2023/01/08 11:08:46;;;;;;;11.50;5.68;;;11.30;51.80;;;;;;5096384;28;20918;-74
2023/01/08 11:11:12;;;;;;;6.82;3.50;;;11.30;52.60;;;;;;5094456;28;20393;-74
2023/01/08 11:13:38;;;;;;;7.93;3.20;;;11.40;52.50;;;;;;5097611;28;20859;-75
2023/01/08 11:16:06;;;;;;;4.10;2.60;;;11.60;51.10;;;;;;5095612;28;20428;-76
2023/01/08 11:18:48;;;;;;;8.25;3.45;;;11.70;49.10;;;;;;5094454;28;20382;-76
2023/01/08 11:21:23;;;;;;;9.07;4.13;;;11.80;47.90;;;;;;5095066;28;20394;-76
2023/01/08 11:24:23;;;;;;;9.87;3.80;;;11.90;48.90;;;;;;5095466;28;20404;-76
2023/01/08 11:26:58;;;;;;;7.60;3.37;;;12.00;48.30;;;;;;5094309;28;20386;-76
2023/01/08 11:29:40;;;;;;;5.93;3.90;;;12.10;44.10;;;;;;5093707;28;20805;-75
2023/01/08 11:32:14;;;;;;;4.25;2.60;;;12.20;43.70;;;;;;5093791;28;20390;-75
2023/01/08 11:35:03;;;;;;;3.93;2.10;;;12.30;42.50;;;;;;5094046;28;20385;-78
2023/01/08 11:37:38;;;;;;;7.03;2.40;;;12.30;41.30;;;;;;5100016;28;20402;-75
2023/01/08 11:40:13;;;;;;;7.60;3.70;;;12.30;41.40;;;;;;5110654;28;20378;-77
2023/01/08 11:42:51;;;;;;;5.40;3.25;;;12.40;41.70;;;;;;5108381;28;20386;-73
2023/01/08 11:45:43;;;;;;;7.25;3.15;;;12.40;41.30;;;;;;5103962;28;20390;-76
2023/01/08 11:48:27;;;;;;;6.53;3.10;;;12.40;41.00;;;;;;5094381;28;20394;-75
2023/01/08 11:51:06;;;;;;;5.05;2.50;;;12.30;42.00;;;;;;5093733;28;20402;-73
2023/01/08 11:53:59;;;;;;;6.80;2.30;;;12.20;40.80;;;;;;5096691;28;20590;-77
2023/01/08 11:56:48;;;;;;;6.07;3.70;;;12.10;41.70;;;;;;5098139;28;20385;-77
2023/01/08 11:59:28;;;;;;;5.30;2.40;;;12.00;42.90;;;;;;5062497;28;20960;-75
2023/01/08 12:02:18;;;;;;;3.50;1.80;;;12.10;43.50;;;;;;5086377;28;20403;-76
2023/01/08 12:05:02;;;;;;;6.65;1.70;;;12.00;43.30;;;;;;5097619;28;20823;-77
2023/01/08 12:08:04;;;;;;;3.63;1.65;;;11.90;45.10;;;;;;5098375;28;20406;-77
2023/01/08 12:10:36;;;;;;;5.70;1.50;;;11.90;48.00;;;;;;5077958;28;20418;-77
2023/01/08 12:13:11;;;;;;;4.75;1.40;;;11.60;54.20;;;;;;5083586;28;20391;-77
2023/01/08 12:15:52;;;;;;;2.45;1.23;;;10.90;61.80;;;;;;5084745;28;20395;-79
2023/01/08 12:18:34;;;;;;;3.00;1.10;;;10.60;63.20;;;;;;5106895;28;20415;-77
2023/01/08 12:21:24;;;;;;;4.30;1.00;;;10.40;65.40;;;;;;5077893;28;20392;-81
2023/01/08 12:24:12;;;;;;;4.10;1.15;;;10.40;65.50;;;;;;5113659;28;20409;-81
2023/01/08 12:26:49;;;;;;;3.22;1.25;;;10.40;65.80;;;;;;5101608;28;20394;-79
2023/01/08 12:29:41;;;;;;;4.18;1.30;;;10.50;65.70;;;;;;5088167;28;20439;-78
2023/01/08 12:32:31;;;;;;;2.90;1.38;;;10.60;63.30;;;;;;5061474;28;20378;-76
2023/01/08 12:35:21;;;;;;;3.20;2.10;;;10.60;64.20;;;;;;5099719;28;20395;-76
2023/01/08 12:38:12;;;;;;;2.53;1.17;;;10.50;64.10;;;;;;5080750;28;20470;-75
2023/01/08 12:40:45;;;;;;;2.35;1.20;;;10.40;64.30;;;;;;5077499;28;20375;-78
2023/01/08 12:43:30;;;;;;;2.90;1.30;;;10.30;66.90;;;;;;5089404;28;20398;-75
2023/01/08 12:46:00;;;;;;;5.00;1.38;;;10.30;63.90;;;;;;5076931;28;20374;-76
2023/01/08 12:48:32;;;;;;;3.50;1.40;;;10.30;64.40;;;;;;5076163;28;20918;-78
2023/01/08 12:51:23;;;;;;;2.65;1.45;;;10.30;65.30;;;;;;5090851;28;20476;-76
2023/01/08 12:54:19;;;;;;;2.50;1.70;;;10.40;63.70;;;;;;5069862;28;20707;-75
2023/01/08 12:57:06;;;;;;;6.88;1.50;;;10.30;66.10;;;;;;5075076;28;20470;-75
2023/01/08 12:59:49;;;;;;;3.20;1.30;;;10.30;65.50;;;;;;5078475;28;20447;-75
2023/01/08 13:02:37;;;;;;;3.00;1.50;;;10.30;60.80;;;;;;5073933;28;20476;-74